This is the latest recevied weather packets stored in our database for station/object OE3XOC-11. If no packets are shown the sender has not sent any weather packets the latest 10 day(s).
| Time | Temp. | Humidity | Pressure | Rain* | Wind** | Luminosity | Snow |
|---|---|---|---|---|---|---|---|
| 1777085562 | 13.89° C | 41% | 961.3 hPa | - | - | - | - |
| 1777085262 | 14.44° C | 40% | 961.4 hPa | - | - | - | - |
| 1777084962 | 14.44° C | 40% | 961.4 hPa | - | - | - | - |
| 1777084662 | 13.89° C | 40% | 961.4 hPa | - | - | - | - |
| 1777084362 | 13.89° C | 40% | 961.4 hPa | - | - | - | - |
| 1777084062 | 14.44° C | 38% | 961.5 hPa | - | - | - | - |
| 1777083762 | 14.44° C | 39% | 961.4 hPa | - | - | - | - |
| 1777083462 | 13.89° C | 40% | 961.4 hPa | - | - | - | - |
| 1777083162 | 13.33° C | 40% | 961.4 hPa | - | - | - | - |
| 1777082862 | 13.89° C | 39% | 961.4 hPa | - | - | - | - |
| 1777082562 | 14.44° C | 38% | 961.4 hPa | - | - | - | - |
| 1777082262 | 14.44° C | 38% | 961.4 hPa | - | - | - | - |
| 1777081962 | 13.89° C | 39% | 961.4 hPa | - | - | - | - |
| 1777081662 | 14.44° C | 38% | 961.5 hPa | - | - | - | - |
| 1777081362 | 13.89° C | 38% | 961.4 hPa | - | - | - | - |
| 1777081062 | 15° C | 36% | 961.4 hPa | - | - | - | - |
| 1777080762 | 15° C | 36% | 961.4 hPa | - | - | - | - |
| 1777080462 | 15° C | 36% | 961.4 hPa | - | - | - | - |
| 1777080162 | 15° C | 36% | 961.4 hPa | - | - | - | - |
| 1777079862 | 14.44° C | 36% | 961.3 hPa | - | - | - | - |
| 1777079562 | 14.44° C | 37% | 961.4 hPa | - | - | - | - |
| 1777079262 | 15.56° C | 34% | 961.3 hPa | - | - | - | - |
| 1777078962 | 15.56° C | 34% | 961.3 hPa | - | - | - | - |
| 1777078662 | 15° C | 36% | 961.3 hPa | - | - | - | - |
| 1777078362 | 14.44° C | 37% | 961.3 hPa | - | - | - | - |
* Rain since midnight (hover to see other rain measurements)
** Current wind speed in m/s (hover to see current wind gust speed)